Time;durP1;ratioP1;P1;durP2;ratioP2;P2;SDS_P1;SDS_P2;PMS_P1;PMS_P2;Temp;Humidity;BMP_temperature;BMP_pressure;BME280_temperature;BME280_humidity;BME280_pressure;Samples;Min_cycle;Max_cycle;Signal;HPM_P1;HPM_P2
2022/02/28 00:02:17;;;;;;;5.67;5.17;;;8.30;65.40;;;;;;5053536;28;20181;-67
2022/02/28 00:04:42;;;;;;;5.37;4.97;;;8.30;64.20;;;;;;5053229;28;20465;-68
2022/02/28 00:07:08;;;;;;;7.20;5.70;;;8.30;63.70;;;;;;5054177;28;20423;-68
2022/02/28 00:09:34;;;;;;;6.17;5.67;;;8.30;65.40;;;;;;5052511;28;20189;-67
2022/02/28 00:12:00;;;;;;;5.90;5.10;;;8.10;63.20;;;;;;5054159;28;20687;-67
2022/02/28 00:14:25;;;;;;;5.60;5.10;;;8.10;63.50;;;;;;5052928;28;20192;-67
2022/02/28 00:16:51;;;;;;;6.37;5.83;;;8.20;64.40;;;;;;5053475;28;20179;-67
2022/02/28 00:19:17;;;;;;;6.03;5.53;;;8.20;64.00;;;;;;5053484;28;20543;-71
2022/02/28 00:21:44;;;;;;;6.33;5.70;;;8.20;65.00;;;;;;5053862;28;20544;-68
2022/02/28 00:24:09;;;;;;;7.90;5.97;;;8.20;64.90;;;;;;5054508;28;20439;-67
2022/02/28 00:26:35;;;;;;;5.90;5.40;;;8.10;63.90;;;;;;5053606;28;20450;-67
2022/02/28 00:29:01;;;;;;;6.50;5.20;;;7.80;63.00;;;;;;5054089;28;20216;-67
2022/02/28 00:31:27;;;;;;;5.93;5.43;;;7.40;62.70;;;;;;5053311;28;20286;-67
2022/02/28 00:33:52;;;;;;;6.43;5.83;;;7.80;63.00;;;;;;5054052;28;20206;-67
2022/02/28 00:36:18;;;;;;;6.60;6.00;;;7.80;62.50;;;;;;5053305;28;20187;-67
2022/02/28 00:38:44;;;;;;;6.27;5.60;;;7.80;62.10;;;;;;5054180;28;20188;-67
2022/02/28 00:41:09;;;;;;;6.23;5.63;;;7.80;62.30;;;;;;5054007;28;20186;-67
2022/02/28 00:43:35;;;;;;;10.17;6.17;;;7.90;62.90;;;;;;5068684;28;20469;-67
2022/02/28 00:46:02;;;;;;;6.70;6.00;;;7.90;62.50;;;;;;5053909;28;20688;-67
2022/02/28 00:48:27;;;;;;;6.07;5.47;;;8.00;62.30;;;;;;5053239;28;20180;-67
2022/02/28 00:50:53;;;;;;;6.93;5.47;;;8.00;61.90;;;;;;5053766;28;20416;-67
2022/02/28 00:53:19;;;;;;;6.50;5.90;;;8.00;61.50;;;;;;5052933;28;20197;-68
2022/02/28 00:55:45;;;;;;;6.13;5.50;;;8.10;61.70;;;;;;5051856;28;20224;-67
2022/02/28 00:58:11;;;;;;;7.10;5.90;;;7.50;60.70;;;;;;5053473;28;20170;-67
2022/02/28 01:00:37;;;;;;;5.53;5.03;;;8.00;61.30;;;;;;5051237;28;20634;-68
2022/02/28 01:03:03;;;;;;;6.27;5.67;;;8.10;61.00;;;;;;5053591;28;20324;-67
2022/02/28 01:05:29;;;;;;;5.63;5.20;;;8.30;61.10;;;;;;5052770;28;20503;-67
2022/02/28 01:07:55;;;;;;;6.27;5.67;;;8.20;61.20;;;;;;5053277;28;20411;-67
2022/02/28 01:10:23;;;;;;;6.13;5.53;;;8.10;60.70;;;;;;5052383;28;20439;-67
2022/02/28 01:12:51;;;;;;;6.83;5.70;;;8.20;60.80;;;;;;5053224;28;20201;-67
2022/02/28 01:15:19;;;;;;;6.60;6.00;;;8.10;60.40;;;;;;5052266;28;20413;-82
2022/02/28 01:17:45;;;;;;;6.93;5.77;;;7.90;60.80;;;;;;5052329;28;20481;-67
2022/02/28 01:20:12;;;;;;;5.93;5.43;;;7.70;60.70;;;;;;5052006;28;20459;-67
2022/02/28 01:22:39;;;;;;;6.43;5.50;;;7.90;61.20;;;;;;5052509;28;20189;-67
2022/02/28 01:25:06;;;;;;;6.17;5.57;;;8.00;61.30;;;;;;5053031;28;20971;-67
2022/02/28 01:27:32;;;;;;;6.50;5.90;;;8.10;61.40;;;;;;5051633;28;20503;-68
2022/02/28 01:29:58;;;;;;;9.13;5.90;;;8.10;60.70;;;;;;5052907;28;20842;-67
2022/02/28 01:32:23;;;;;;;6.50;5.90;;;8.00;60.50;;;;;;5051411;28;20466;-67
2022/02/28 01:34:50;;;;;;;6.17;5.67;;;8.10;61.00;;;;;;5052932;28;20511;-67
2022/02/28 01:37:16;;;;;;;6.30;5.73;;;8.10;61.20;;;;;;5052617;28;20204;-83
2022/02/28 01:39:44;;;;;;;6.03;5.43;;;7.80;61.10;;;;;;5052771;28;20417;-67
2022/02/28 01:42:11;;;;;;;6.40;5.83;;;8.20;62.00;;;;;;5052932;28;20428;-67
2022/02/28 01:44:37;;;;;;;6.37;5.87;;;8.20;61.70;;;;;;5050814;28;20506;-67
2022/02/28 01:47:03;;;;;;;7.50;6.37;;;8.10;62.00;;;;;;5052477;28;20516;-67
2022/02/28 01:49:30;;;;;;;6.43;5.73;;;8.10;63.20;;;;;;5050742;28;20426;-67
2022/02/28 01:52:00;;;;;;;6.57;5.50;;;8.20;63.30;;;;;;5052246;28;20936;-67
2022/02/28 01:54:27;;;;;;;6.57;5.80;;;8.00;62.70;;;;;;5051445;28;20403;-67
2022/02/28 01:56:53;;;;;;;7.07;6.37;;;7.80;62.10;;;;;;5052685;28;20447;-67
2022/02/28 01:59:18;;;;;;;6.20;5.40;;;7.70;62.80;;;;;;5052019;28;20450;-79
2022/02/28 02:01:44;;;;;;;5.83;5.33;;;7.80;63.10;;;;;;5062073;28;20489;-67
2022/02/28 02:04:10;;;;;;;7.00;6.30;;;8.00;62.90;;;;;;5051827;28;20450;-71
2022/02/28 02:06:36;;;;;;;6.00;5.40;;;7.90;63.00;;;;;;5051525;28;20234;-71
2022/02/28 02:09:05;;;;;;;8.57;6.40;;;7.90;63.00;;;;;;5053869;28;20185;-67
2022/02/28 02:11:31;;;;;;;6.90;6.20;;;7.90;63.20;;;;;;5052342;28;20204;-67
2022/02/28 02:13:58;;;;;;;6.70;5.90;;;7.80;63.30;;;;;;5052525;28;20446;-67
2022/02/28 02:16:25;;;;;;;6.33;5.83;;;7.90;63.10;;;;;;5051396;28;20469;-67
2022/02/28 02:18:51;;;;;;;7.63;5.90;;;8.00;63.30;;;;;;5052001;28;20408;-67
2022/02/28 02:21:17;;;;;;;8.90;6.43;;;7.90;64.50;;;;;;5051916;28;20458;-78
2022/02/28 02:23:43;;;;;;;7.57;6.37;;;7.90;64.90;;;;;;5052035;28;20426;-67
2022/02/28 02:26:13;;;;;;;6.70;6.10;;;7.80;65.70;;;;;;5051105;28;20427;-67
2022/02/28 02:28:41;;;;;;;6.90;6.30;;;7.70;65.10;;;;;;5048940;28;20181;-67
2022/02/28 02:31:07;;;;;;;6.97;6.33;;;7.60;65.60;;;;;;5050769;28;20492;-68
2022/02/28 02:33:33;;;;;;;7.37;6.20;;;7.60;64.90;;;;;;5049810;28;20970;-67
2022/02/28 02:36:01;;;;;;;6.93;6.33;;;7.50;65.70;;;;;;5050657;28;20938;-68
2022/02/28 02:38:28;;;;;;;7.10;6.40;;;7.50;66.20;;;;;;5049787;28;20414;-71
2022/02/28 02:40:54;;;;;;;6.87;6.27;;;7.50;65.60;;;;;;5049505;28;20427;-72
2022/02/28 02:43:20;;;;;;;7.07;6.37;;;7.40;65.80;;;;;;5050041;28;20408;-82
2022/02/28 02:45:46;;;;;;;6.30;5.60;;;7.50;65.70;;;;;;5050555;28;20975;-68
2022/02/28 02:48:13;;;;;;;6.13;5.53;;;7.40;65.30;;;;;;5049578;28;20500;-67
2022/02/28 02:50:39;;;;;;;8.27;6.20;;;7.50;65.60;;;;;;5050084;28;20180;-67
2022/02/28 02:53:05;;;;;;;6.33;5.73;;;7.40;66.10;;;;;;5050602;28;20459;-68
2022/02/28 02:55:31;;;;;;;7.10;6.40;;;7.40;66.40;;;;;;5049251;28;20513;-67
2022/02/28 02:57:57;;;;;;;6.57;5.70;;;7.40;66.70;;;;;;5050433;28;20172;-68
2022/02/28 03:00:23;;;;;;;7.10;6.00;;;7.40;66.90;;;;;;5049261;28;20424;-68
2022/02/28 03:02:48;;;;;;;6.80;6.20;;;7.40;67.60;;;;;;5048738;28;20200;-67
2022/02/28 03:05:14;;;;;;;5.83;5.33;;;7.30;66.70;;;;;;5050703;28;20259;-67
2022/02/28 03:07:40;;;;;;;6.80;6.00;;;7.30;66.90;;;;;;5048610;28;20180;-68
2022/02/28 03:10:06;;;;;;;6.40;5.80;;;7.30;67.00;;;;;;5050267;28;20195;-72
2022/02/28 03:12:32;;;;;;;7.40;6.70;;;7.20;66.50;;;;;;5049692;28;20458;-67
2022/02/28 03:14:57;;;;;;;7.63;6.00;;;7.20;66.40;;;;;;5050411;28;20934;-68
2022/02/28 03:17:23;;;;;;;5.73;5.20;;;7.20;66.10;;;;;;5048386;28;20306;-69
2022/02/28 03:19:49;;;;;;;6.47;5.87;;;7.20;66.70;;;;;;5050036;28;20242;-68
2022/02/28 03:22:14;;;;;;;6.77;6.20;;;7.20;66.40;;;;;;5050213;28;20171;-67
2022/02/28 03:24:40;;;;;;;6.50;6.00;;;7.20;67.10;;;;;;5031757;28;20343;-68
2022/02/28 03:27:06;;;;;;;7.03;6.30;;;7.20;67.40;;;;;;5049935;28;20187;-67
2022/02/28 03:29:31;;;;;;;6.20;5.60;;;7.10;67.50;;;;;;5049222;28;20634;-67
2022/02/28 03:31:57;;;;;;;6.50;5.80;;;7.10;66.20;;;;;;5049773;28;20203;-67
2022/02/28 03:34:23;;;;;;;7.00;5.90;;;7.00;65.40;;;;;;5049499;28;20541;-68
2022/02/28 03:36:49;;;;;;;6.80;5.67;;;6.90;64.30;;;;;;5051864;28;20215;-67
2022/02/28 03:39:15;;;;;;;5.90;5.40;;;7.00;65.20;;;;;;5054599;28;20175;-67
2022/02/28 03:41:41;;;;;;;7.10;6.40;;;7.20;65.70;;;;;;5054287;28;20181;-67
2022/02/28 03:44:07;;;;;;;6.80;6.13;;;7.20;65.80;;;;;;5055037;28;20414;-68
2022/02/28 03:46:33;;;;;;;7.57;6.47;;;6.80;65.00;;;;;;5054442;28;20173;-68
2022/02/28 03:48:59;;;;;;;6.80;6.20;;;7.30;64.90;;;;;;5055030;28;20412;-67
2022/02/28 03:51:24;;;;;;;6.57;5.97;;;7.50;65.70;;;;;;5052591;28;20278;-68
2022/02/28 03:53:50;;;;;;;7.40;6.70;;;7.40;66.70;;;;;;5055283;28;20433;-67
2022/02/28 03:56:16;;;;;;;7.20;6.50;;;7.30;67.00;;;;;;5053772;28;20180;-68
2022/02/28 03:58:42;;;;;;;8.20;6.00;;;7.00;65.20;;;;;;5053266;28;20781;-67
2022/02/28 04:01:08;;;;;;;9.47;6.77;;;7.30;65.80;;;;;;5054508;28;20430;-67
2022/02/28 04:03:33;;;;;;;6.80;6.17;;;7.30;65.90;;;;;;5053830;28;20528;-67
2022/02/28 04:05:59;;;;;;;6.93;6.33;;;7.00;66.30;;;;;;5054302;28;20419;-67
2022/02/28 04:08:25;;;;;;;7.20;5.90;;;7.30;66.40;;;;;;5054018;28;20182;-68
2022/02/28 04:10:51;;;;;;;7.53;6.20;;;7.20;65.20;;;;;;5054901;28;20183;-67
2022/02/28 04:13:16;;;;;;;7.43;6.63;;;6.60;64.00;;;;;;5054342;28;20460;-67
2022/02/28 04:15:43;;;;;;;7.93;5.73;;;7.10;65.00;;;;;;5053557;28;20997;-67
2022/02/28 04:18:09;;;;;;;7.30;6.53;;;7.00;64.70;;;;;;5054774;28;20616;-67
2022/02/28 04:20:34;;;;;;;7.20;6.10;;;7.10;64.90;;;;;;5052267;28;20469;-67
2022/02/28 04:23:00;;;;;;;7.43;6.43;;;7.10;64.90;;;;;;5053194;28;20245;-67
2022/02/28 04:25:26;;;;;;;7.40;6.40;;;7.20;65.50;;;;;;5053591;28;20426;-68
2022/02/28 04:27:52;;;;;;;6.83;6.13;;;7.10;64.50;;;;;;5054267;28;20180;-67
2022/02/28 04:30:20;;;;;;;8.37;6.87;;;7.10;64.30;;;;;;5054375;28;20177;-67
2022/02/28 04:32:47;;;;;;;7.30;6.57;;;7.20;64.40;;;;;;5052747;28;20472;-67
2022/02/28 04:35:12;;;;;;;7.20;6.47;;;7.30;64.90;;;;;;5054543;28;20420;-67
2022/02/28 04:37:38;;;;;;;7.20;6.33;;;7.40;65.30;;;;;;5053598;28;20421;-67
2022/02/28 04:40:05;;;;;;;7.37;6.47;;;7.30;64.60;;;;;;5054360;28;20180;-67
2022/02/28 04:42:30;;;;;;;6.80;6.20;;;7.40;64.30;;;;;;5053832;28;20180;-67
2022/02/28 04:44:56;;;;;;;8.17;6.70;;;7.30;64.80;;;;;;5052931;28;20468;-67
2022/02/28 04:47:22;;;;;;;7.00;6.40;;;7.40;65.90;;;;;;5053942;28;20248;-82
2022/02/28 04:49:48;;;;;;;6.73;6.10;;;6.80;64.10;;;;;;5052846;28;20419;-67
2022/02/28 04:52:14;;;;;;;8.07;7.27;;;7.30;65.20;;;;;;5054127;28;20429;-67
2022/02/28 04:54:40;;;;;;;7.47;6.83;;;7.30;65.50;;;;;;5034431;28;20575;-68
2022/02/28 04:57:05;;;;;;;7.77;7.00;;;7.30;66.60;;;;;;5053957;28;20180;-67
2022/02/28 04:59:31;;;;;;;7.80;7.20;;;7.20;66.60;;;;;;5051605;28;20199;-68
2022/02/28 05:01:57;;;;;;;7.63;7.03;;;7.00;67.20;;;;;;5053331;28;20632;-68
2022/02/28 05:04:22;;;;;;;8.47;7.60;;;7.10;67.20;;;;;;5053286;28;20205;-82
2022/02/28 05:06:48;;;;;;;8.37;7.67;;;7.10;67.40;;;;;;5052756;28;20185;-67
2022/02/28 05:09:15;;;;;;;8.63;7.73;;;6.70;68.40;;;;;;5053122;28;20236;-67
2022/02/28 05:11:41;;;;;;;8.00;7.23;;;7.00;68.80;;;;;;5051593;28;20246;-67
2022/02/28 05:14:06;;;;;;;9.33;8.43;;;6.90;68.60;;;;;;5052909;28;20418;-67
2022/02/28 05:16:32;;;;;;;8.30;7.57;;;6.40;67.50;;;;;;5052298;28;20215;-67
2022/02/28 05:18:59;;;;;;;8.67;7.87;;;6.80;67.90;;;;;;5053047;28;20180;-67
2022/02/28 05:21:24;;;;;;;8.80;7.70;;;6.80;67.60;;;;;;5049662;28;20277;-82
2022/02/28 05:23:50;;;;;;;7.53;6.80;;;6.80;67.70;;;;;;5051123;28;20396;-67
2022/02/28 05:26:16;;;;;;;9.80;8.07;;;6.80;68.10;;;;;;5053020;28;20221;-67
2022/02/28 05:28:42;;;;;;;10.30;8.60;;;6.80;67.80;;;;;;5052163;28;20642;-67
2022/02/28 05:31:08;;;;;;;8.97;7.50;;;6.70;67.80;;;;;;5057612;28;20509;-67
2022/02/28 05:33:35;;;;;;;8.63;7.73;;;6.70;68.40;;;;;;5050601;28;20338;-66
2022/02/28 05:36:01;;;;;;;8.60;7.73;;;6.30;67.90;;;;;;5051656;28;20199;-68
2022/02/28 05:38:26;;;;;;;9.07;8.10;;;6.40;68.60;;;;;;5051309;28;20748;-75
2022/02/28 05:40:53;;;;;;;8.27;7.43;;;6.60;69.00;;;;;;5051155;28;20422;-66
2022/02/28 05:43:20;;;;;;;7.70;7.03;;;6.60;68.90;;;;;;5056095;28;20198;-66
2022/02/28 05:45:46;;;;;;;7.97;7.27;;;6.30;68.40;;;;;;5052426;28;20547;-65
2022/02/28 05:48:11;;;;;;;7.60;6.87;;;6.40;67.70;;;;;;5051281;28;20931;-66
2022/02/28 05:50:37;;;;;;;8.53;7.73;;;6.50;68.20;;;;;;5052146;28;20841;-66
2022/02/28 05:53:03;;;;;;;8.00;7.30;;;6.30;66.80;;;;;;5051670;28;20292;-65
2022/02/28 05:55:29;;;;;;;7.77;7.07;;;6.60;66.90;;;;;;5049693;28;20654;-66
2022/02/28 05:57:55;;;;;;;8.77;7.00;;;6.80;67.30;;;;;;5056091;28;20510;-68
2022/02/28 06:00:21;;;;;;;8.30;7.47;;;6.80;67.00;;;;;;5052257;28;20758;-66
2022/02/28 06:02:48;;;;;;;9.07;7.33;;;6.90;66.40;;;;;;5061110;28;20908;-65
2022/02/28 06:05:14;;;;;;;10.53;8.00;;;6.90;66.30;;;;;;5072912;28;20429;-65
2022/02/28 06:07:40;;;;;;;11.17;9.20;;;7.00;66.90;;;;;;5072380;28;20449;-66
2022/02/28 06:10:06;;;;;;;10.97;8.97;;;7.00;67.10;;;;;;5072814;28;20270;-65
2022/02/28 06:12:31;;;;;;;12.30;9.43;;;6.90;66.70;;;;;;5059428;28;20199;-66
2022/02/28 06:14:57;;;;;;;9.17;8.27;;;6.30;66.20;;;;;;5051238;28;20233;-66
2022/02/28 06:17:23;;;;;;;9.43;8.30;;;6.50;66.80;;;;;;5051592;28;20706;-66
2022/02/28 06:19:49;;;;;;;8.80;7.90;;;6.40;67.20;;;;;;5051182;28;20191;-66
2022/02/28 06:22:14;;;;;;;11.37;8.60;;;6.70;68.30;;;;;;5051761;28;20194;-67
2022/02/28 06:24:40;;;;;;;9.93;8.10;;;6.60;67.40;;;;;;5050543;28;20399;-66
2022/02/28 06:27:06;;;;;;;9.30;8.33;;;6.70;67.80;;;;;;5052229;28;20179;-67
2022/02/28 06:29:31;;;;;;;8.33;7.53;;;6.80;68.50;;;;;;5051259;28;20186;-66
2022/02/28 06:31:57;;;;;;;10.33;8.97;;;6.70;69.10;;;;;;5051602;28;20211;-69
2022/02/28 06:34:23;;;;;;;8.77;7.87;;;6.70;69.10;;;;;;5051998;28;20274;-66
2022/02/28 06:36:49;;;;;;;8.30;7.30;;;6.70;69.30;;;;;;5051483;28;20184;-66
2022/02/28 06:39:15;;;;;;;9.40;8.40;;;6.50;68.20;;;;;;5051719;28;20411;-66
2022/02/28 06:41:41;;;;;;;11.60;9.40;;;6.60;69.30;;;;;;5051139;28;20659;-66
2022/02/28 06:44:07;;;;;;;10.07;8.10;;;6.60;69.00;;;;;;5050617;28;20914;-66
2022/02/28 06:46:34;;;;;;;12.00;9.73;;;6.60;69.30;;;;;;5051441;28;20430;-66
2022/02/28 06:48:59;;;;;;;14.63;8.90;;;6.70;69.60;;;;;;5052554;28;20765;-66
2022/02/28 06:51:25;;;;;;;14.53;9.40;;;6.30;70.00;;;;;;5052170;28;20425;-65
2022/02/28 06:53:51;;;;;;;9.90;8.37;;;6.20;70.40;;;;;;5051809;28;20262;-66
2022/02/28 06:56:17;;;;;;;11.80;9.40;;;6.60;69.20;;;;;;5052292;28;20266;-66
2022/02/28 06:58:43;;;;;;;17.13;9.63;;;6.70;71.40;;;;;;5051542;28;20187;-66
2022/02/28 07:01:11;;;;;;;14.00;10.30;;;6.60;72.10;;;;;;5052432;28;20388;-66
2022/02/28 07:03:37;;;;;;;13.18;10.77;;;6.50;73.70;;;;;;5051646;28;20826;-68
2022/02/28 07:06:04;;;;;;;12.87;10.30;;;6.40;73.40;;;;;;5052451;28;20648;-67
2022/02/28 07:08:32;;;;;;;15.77;10.40;;;6.40;73.90;;;;;;5050164;28;20399;-70
2022/02/28 07:10:58;;;;;;;14.43;10.03;;;6.40;76.90;;;;;;5052359;28;20443;-68
2022/02/28 07:13:25;;;;;;;12.40;9.83;;;6.40;76.30;;;;;;5052501;28;20881;-68
2022/02/28 07:15:52;;;;;;;16.27;9.60;;;6.40;75.10;;;;;;5054793;28;20377;-67
2022/02/28 07:18:18;;;;;;;13.47;10.00;;;6.30;77.80;;;;;;5054051;28;21002;-66
2022/02/28 07:20:44;;;;;;;14.93;10.53;;;6.40;77.90;;;;;;5054330;28;20488;-67
2022/02/28 07:23:10;;;;;;;16.73;9.70;;;6.40;76.90;;;;;;5054214;28;20456;-66
2022/02/28 07:25:36;;;;;;;14.73;10.43;;;6.20;75.60;;;;;;5054687;28;20420;-68
2022/02/28 07:28:03;;;;;;;10.80;8.80;;;6.60;77.20;;;;;;5055495;28;20773;-67
2022/02/28 07:30:30;;;;;;;13.57;9.00;;;6.40;74.60;;;;;;5054065;28;20435;-65
2022/02/28 07:32:56;;;;;;;11.07;9.98;;;6.50;74.20;;;;;;5055156;28;20510;-68
2022/02/28 07:35:21;;;;;;;10.23;9.23;;;6.90;85.90;;;;;;5055062;28;20318;-68
2022/02/28 07:37:47;;;;;;;10.20;9.20;;;7.70;99.90;;;;;;5055728;28;20449;-68
2022/02/28 07:40:14;;;;;;;9.90;8.90;;;8.40;99.90;;;;;;5055744;28;20412;-68
2022/02/28 07:42:39;;;;;;;15.40;9.80;;;8.90;98.60;;;;;;5054178;28;20188;-69
2022/02/28 07:45:07;;;;;;;12.33;9.60;;;9.40;97.10;;;;;;5055723;28;20872;-68
2022/02/28 07:47:33;;;;;;;8.80;7.90;;;9.90;91.70;;;;;;5054358;28;20178;-69
2022/02/28 07:49:59;;;;;;;10.47;9.47;;;10.30;92.40;;;;;;5054548;28;20405;-68
2022/02/28 07:52:26;;;;;;;10.73;8.40;;;10.70;91.60;;;;;;5037981;28;20955;-69
2022/02/28 07:54:51;;;;;;;10.23;9.23;;;11.00;84.30;;;;;;5055350;28;20174;-68
2022/02/28 07:57:17;;;;;;;10.30;9.20;;;11.10;71.10;;;;;;5055688;28;20474;-69
2022/02/28 07:59:43;;;;;;;10.93;9.10;;;11.20;77.10;;;;;;5055411;28;20617;-68
2022/02/28 08:02:09;;;;;;;13.47;9.80;;;11.10;65.50;;;;;;5055576;28;20655;-69
2022/02/28 08:04:35;;;;;;;10.87;9.77;;;11.00;65.70;;;;;;5053843;28;20197;-69
2022/02/28 08:07:01;;;;;;;12.30;10.53;;;11.00;73.10;;;;;;5037785;28;20183;-68
2022/02/28 08:09:27;;;;;;;13.17;9.73;;;11.30;78.90;;;;;;5017208;28;20421;-69
2022/02/28 08:11:58;;;;;;;11.53;9.77;;;11.50;81.50;;;;;;5035122;28;20446;-69
2022/02/28 08:14:23;;;;;;;9.97;8.97;;;11.70;76.20;;;;;;5035324;28;20413;-69
2022/02/28 08:16:49;;;;;;;11.83;10.10;;;11.80;70.60;;;;;;5044916;28;20770;-68
2022/02/28 08:19:16;;;;;;;10.47;9.43;;;11.80;71.80;;;;;;5055370;28;20174;-69
2022/02/28 08:21:42;;;;;;;11.50;9.80;;;12.00;67.50;;;;;;5054810;28;20808;-69
2022/02/28 08:24:07;;;;;;;10.60;9.60;;;12.10;74.40;;;;;;5053205;28;20412;-69
2022/02/28 08:26:35;;;;;;;10.90;9.90;;;12.20;74.90;;;;;;5053369;28;20524;-69
2022/02/28 08:29:00;;;;;;;11.47;10.30;;;12.40;73.00;;;;;;5054865;28;20428;-69
2022/02/28 08:31:26;;;;;;;11.03;9.93;;;12.60;73.20;;;;;;5054690;28;20415;-69
2022/02/28 08:33:52;;;;;;;11.00;9.20;;;12.80;70.40;;;;;;5054503;28;20731;-69
2022/02/28 08:36:18;;;;;;;12.00;10.80;;;12.90;69.30;;;;;;5037009;28;20183;-69
2022/02/28 08:38:44;;;;;;;12.23;10.57;;;13.10;71.90;;;;;;5052776;28;20171;-69
2022/02/28 08:41:10;;;;;;;12.93;11.80;;;13.30;73.50;;;;;;5054721;28;20413;-69
2022/02/28 08:43:36;;;;;;;12.00;10.10;;;13.50;67.10;;;;;;5054020;28;20889;-69
2022/02/28 08:46:04;;;;;;;9.87;9.03;;;13.60;67.00;;;;;;5053966;28;20414;-69
2022/02/28 08:48:30;;;;;;;9.60;8.60;;;13.70;64.40;;;;;;5053102;28;20425;-69
2022/02/28 08:50:56;;;;;;;9.07;8.13;;;13.90;66.80;;;;;;5052454;28;20424;-69
2022/02/28 08:53:22;;;;;;;10.20;8.40;;;14.10;61.70;;;;;;5054342;28;20474;-69
2022/02/28 08:55:48;;;;;;;8.73;7.83;;;14.20;61.40;;;;;;5053068;28;20427;-69
2022/02/28 08:58:14;;;;;;;8.90;8.10;;;14.40;58.60;;;;;;5054591;28;20180;-69
2022/02/28 09:00:40;;;;;;;8.57;7.80;;;14.50;58.30;;;;;;5052271;28;20185;-71
2022/02/28 09:03:07;;;;;;;9.40;7.97;;;14.50;57.90;;;;;;5052986;28;20436;-69
2022/02/28 09:05:36;;;;;;;8.47;7.67;;;14.50;56.10;;;;;;5053086;28;20421;-69
2022/02/28 09:08:02;;;;;;;9.03;8.23;;;14.70;59.10;;;;;;5054331;28;20414;-69
2022/02/28 09:10:28;;;;;;;8.27;7.47;;;14.70;53.70;;;;;;5052994;28;20413;-69
2022/02/28 09:12:54;;;;;;;10.07;8.20;;;14.70;51.20;;;;;;5052451;28;20512;-69
2022/02/28 09:15:20;;;;;;;9.43;8.37;;;14.60;52.20;;;;;;5036110;28;20522;-69
2022/02/28 09:17:46;;;;;;;8.47;7.60;;;14.40;54.10;;;;;;5053560;28;20447;-69
2022/02/28 09:20:12;;;;;;;9.00;8.20;;;13.80;50.50;;;;;;5052612;28;20585;-69
2022/02/28 09:22:39;;;;;;;9.33;8.40;;;14.00;53.20;;;;;;5051737;28;20516;-83
2022/02/28 09:25:06;;;;;;;8.33;7.53;;;14.30;54.80;;;;;;5053198;28;20509;-70
2022/02/28 09:27:32;;;;;;;11.13;7.40;;;14.50;54.40;;;;;;5051664;28;20413;-67
2022/02/28 09:29:58;;;;;;;7.77;7.07;;;14.50;49.40;;;;;;5052329;28;20526;-67
2022/02/28 09:32:24;;;;;;;8.87;8.07;;;13.40;47.10;;;;;;5053474;28;20588;-66
2022/02/28 09:34:49;;;;;;;8.23;7.40;;;12.70;49.00;;;;;;5052961;28;20180;-67
2022/02/28 09:37:15;;;;;;;8.50;7.80;;;12.50;49.70;;;;;;5053368;28;20206;-67
2022/02/28 09:39:41;;;;;;;8.70;7.90;;;12.40;51.50;;;;;;5052613;28;20624;-68
2022/02/28 09:42:07;;;;;;;8.87;8.00;;;12.30;50.00;;;;;;5052686;28;20190;-66
2022/02/28 09:44:34;;;;;;;8.07;7.27;;;12.10;49.70;;;;;;5052388;28;20625;-67
2022/02/28 09:47:00;;;;;;;9.00;7.77;;;12.10;50.30;;;;;;5052392;28;20430;-67
2022/02/28 09:49:26;;;;;;;8.60;7.90;;;12.10;50.30;;;;;;5053117;28;20496;-66
2022/02/28 09:51:52;;;;;;;8.30;7.50;;;12.20;50.30;;;;;;5052544;28;20565;-67
2022/02/28 09:54:18;;;;;;;8.70;7.10;;;12.20;50.00;;;;;;5052472;28;20184;-67
2022/02/28 09:56:44;;;;;;;8.97;7.70;;;12.20;49.60;;;;;;5051754;28;20879;-67
2022/02/28 09:59:10;;;;;;;8.60;7.33;;;12.40;50.20;;;;;;5051447;28;20424;-66
2022/02/28 10:01:36;;;;;;;7.80;7.10;;;12.50;49.40;;;;;;5052039;28;20201;-66
2022/02/28 10:04:02;;;;;;;8.20;7.40;;;12.70;49.30;;;;;;5051682;28;20196;-66
2022/02/28 10:06:27;;;;;;;8.57;7.77;;;12.90;47.90;;;;;;5052402;28;20265;-67
2022/02/28 10:09:00;;;;;;;7.30;6.60;;;12.90;49.30;;;;;;5052310;28;20457;-67
2022/02/28 10:11:29;;;;;;;7.27;6.57;;;13.00;48.60;;;;;;5052875;28;20535;-66
2022/02/28 10:14:00;;;;;;;6.90;6.20;;;13.00;48.00;;;;;;5052130;28;20421;-66
2022/02/28 10:16:57;;;;;;;7.70;7.00;;;13.00;47.40;;;;;;5052453;28;20418;-66
2022/02/28 10:19:29;;;;;;;7.90;7.20;;;13.20;47.40;;;;;;5050704;28;20458;-66
2022/02/28 10:22:05;;;;;;;7.77;7.27;;;13.30;46.40;;;;;;5049009;28;20472;-66
2022/02/28 10:24:39;;;;;;;8.80;7.43;;;13.30;46.70;;;;;;5052158;28;20477;-66
2022/02/28 10:27:08;;;;;;;7.43;6.73;;;13.60;48.10;;;;;;5051878;28;20426;-66
2022/02/28 10:29:40;;;;;;;7.37;6.67;;;13.90;47.00;;;;;;5051336;28;20420;-66
2022/02/28 10:32:07;;;;;;;7.83;7.13;;;13.90;45.70;;;;;;5050972;28;20816;-66
2022/02/28 10:37:20;;;;;;;8.93;8.13;;;14.40;47.10;;;;;;5049844;28;20416;-66
2022/02/28 10:40:00;;;;;;;7.50;6.80;;;14.70;46.00;;;;;;5050135;28;20915;-66
2022/02/28 10:42:46;;;;;;;7.73;7.13;;;15.10;46.30;;;;;;5052169;28;20171;-66
2022/02/28 10:45:22;;;;;;;7.03;6.37;;;15.20;44.40;;;;;;5052215;28;20419;-66
2022/02/28 10:47:52;;;;;;;8.33;7.53;;;15.50;44.40;;;;;;5050704;28;20433;-67
2022/02/28 10:50:40;;;;;;;8.23;7.53;;;15.60;42.80;;;;;;5051762;28;20997;-66
2022/02/28 10:53:20;;;;;;;7.87;7.17;;;15.40;42.30;;;;;;5051203;28;20478;-66
2022/02/28 10:55:47;;;;;;;7.20;6.70;;;15.40;42.20;;;;;;5051272;28;20415;-67
2022/02/28 10:58:14;;;;;;;6.90;5.90;;;15.60;42.20;;;;;;5052070;28;20449;-66
2022/02/28 11:01:12;;;;;;;7.97;7.17;;;15.90;44.70;;;;;;5051888;28;20440;-67
2022/02/28 11:03:49;;;;;;;7.47;6.87;;;16.30;41.50;;;;;;5040006;28;20772;-66
2022/02/28 11:06:20;;;;;;;7.30;6.70;;;16.40;40.40;;;;;;5051834;28;20745;-66
2022/02/28 11:08:46;;;;;;;6.90;6.30;;;16.40;40.20;;;;;;5050924;28;20424;-72
2022/02/28 11:11:14;;;;;;;6.70;6.10;;;16.40;40.20;;;;;;5050280;28;20526;-66
2022/02/28 11:13:43;;;;;;;7.27;6.67;;;16.50;40.00;;;;;;5047787;28;20206;-68
2022/02/28 11:16:13;;;;;;;6.90;6.30;;;16.00;40.30;;;;;;5050103;28;20518;-67
2022/02/28 11:18:40;;;;;;;7.57;6.87;;;16.30;41.30;;;;;;5048332;28;20425;-66
2022/02/28 11:21:07;;;;;;;6.40;5.90;;;16.30;41.00;;;;;;5050835;28;20448;-66
2022/02/28 11:23:41;;;;;;;6.73;6.13;;;16.60;40.70;;;;;;5050000;28;20778;-67
2022/02/28 11:26:07;;;;;;;7.10;6.50;;;17.00;40.60;;;;;;5048342;28;20912;-67
2022/02/28 11:28:33;;;;;;;6.60;6.20;;;17.20;38.70;;;;;;5049395;28;20431;-66
2022/02/28 11:31:10;;;;;;;6.90;6.40;;;17.40;39.10;;;;;;5049090;28;20182;-68
2022/02/28 11:33:39;;;;;;;6.67;6.10;;;17.20;37.50;;;;;;5050365;28;20202;-67
2022/02/28 11:36:05;;;;;;;6.27;5.77;;;17.10;39.00;;;;;;5049514;28;20441;-68
2022/02/28 11:38:31;;;;;;;6.70;6.10;;;17.30;38.80;;;;;;5050669;28;20728;-66
2022/02/28 11:41:00;;;;;;;7.10;6.40;;;17.70;39.20;;;;;;5050198;28;20485;-66
2022/02/28 11:43:28;;;;;;;7.10;6.57;;;18.00;39.40;;;;;;5050439;28;20186;-68
2022/02/28 11:45:54;;;;;;;6.90;6.20;;;18.20;38.70;;;;;;5049378;28;20932;-67
2022/02/28 11:48:35;;;;;;;7.47;6.87;;;18.00;36.70;;;;;;5049987;28;20515;-69
2022/02/28 11:51:19;;;;;;;7.57;6.90;;;18.10;37.00;;;;;;5047312;28;20170;-68
2022/02/28 11:53:50;;;;;;;7.17;6.57;;;17.10;37.50;;;;;;5046814;28;20821;-74
2022/02/28 11:56:18;;;;;;;6.50;6.00;;;17.10;38.90;;;;;;5050587;28;20418;-66
2022/02/28 11:58:48;;;;;;;7.03;6.40;;;17.40;40.80;;;;;;5050055;28;20812;-66
2022/02/28 12:01:16;;;;;;;7.37;6.77;;;17.80;39.50;;;;;;5054545;28;20973;-67
2022/02/28 12:03:49;;;;;;;7.00;6.40;;;17.70;37.20;;;;;;5053655;28;20434;-76
2022/02/28 12:06:48;;;;;;;7.37;6.77;;;17.50;37.60;;;;;;5053776;28;20458;-66
2022/02/28 12:09:31;;;;;;;7.00;6.50;;;17.60;37.90;;;;;;5040608;28;20427;-66
2022/02/28 12:12:12;;;;;;;7.13;6.53;;;17.70;38.30;;;;;;5050576;28;20507;-67
2022/02/28 12:14:56;;;;;;;7.30;6.70;;;17.00;37.00;;;;;;5051347;28;20435;-66
2022/02/28 12:20:15;;;;;;;7.17;6.57;;;17.00;38.00;;;;;;5050639;28;20420;-66
2022/02/28 12:22:57;;;;;;;7.20;6.60;;;17.00;38.10;;;;;;5051483;28;20420;-66
2022/02/28 12:25:49;;;;;;;7.40;6.70;;;16.90;37.70;;;;;;5052002;28;20422;-66
2022/02/28 12:28:38;;;;;;;7.40;6.70;;;17.20;39.40;;;;;;5053332;28;20420;-66
2022/02/28 12:31:32;;;;;;;7.80;7.10;;;17.30;38.50;;;;;;5050166;28;21062;-67
2022/02/28 12:34:00;;;;;;;7.80;7.10;;;17.30;38.30;;;;;;5049770;28;20440;-66
2022/02/28 12:36:29;;;;;;;8.23;7.53;;;17.00;38.40;;;;;;5053310;28;20430;-66
2022/02/28 12:39:01;;;;;;;7.43;6.73;;;17.10;38.40;;;;;;5051394;28;20443;-67
2022/02/28 12:41:36;;;;;;;7.20;6.60;;;17.20;38.80;;;;;;5051985;28;20769;-66
2022/02/28 12:44:07;;;;;;;7.40;6.80;;;17.30;38.70;;;;;;5050657;28;20900;-66
2022/02/28 12:46:42;;;;;;;7.57;6.97;;;17.30;38.40;;;;;;5053152;28;20503;-66
2022/02/28 12:49:09;;;;;;;8.63;7.87;;;17.10;37.90;;;;;;5053150;28;20412;-67
2022/02/28 12:51:37;;;;;;;7.77;7.07;;;16.80;38.30;;;;;;5051522;28;21182;-67
2022/02/28 12:54:10;;;;;;;7.03;6.43;;;16.40;39.40;;;;;;5052582;28;20851;-66
2022/02/28 12:56:41;;;;;;;7.07;6.37;;;16.50;39.30;;;;;;5053206;28;20443;-66
2022/02/28 12:59:07;;;;;;;7.30;6.60;;;16.50;39.50;;;;;;5052096;28;20935;-67